createdAt,value
2023-04-29T00:02:35.614Z,99.90
2023-04-29T00:05:59.013Z,99.90
2023-04-29T00:09:21.506Z,99.90
2023-04-29T00:12:43.100Z,99.90
2023-04-29T00:16:05.103Z,99.90
2023-04-29T00:19:32.544Z,99.90
2023-04-29T00:22:56.754Z,99.90
2023-04-29T00:26:18.390Z,99.90
2023-04-29T00:29:39.946Z,99.90
2023-04-29T00:33:02.187Z,99.90
2023-04-29T00:36:23.878Z,99.90
2023-04-29T00:39:48.952Z,99.90
2023-04-29T00:43:12.937Z,99.90
2023-04-29T00:46:36.062Z,99.90
2023-04-29T00:49:57.689Z,99.90
2023-04-29T00:53:19.953Z,99.90
2023-04-29T00:56:46.656Z,99.90
2023-04-29T01:00:09.508Z,99.90
2023-04-29T01:03:31.608Z,99.90
2023-04-29T01:06:58.489Z,99.90
2023-04-29T01:10:26.452Z,99.90
2023-04-29T01:13:50.556Z,99.90
2023-04-29T01:17:15.708Z,99.90
2023-04-29T01:20:37.801Z,99.90
2023-04-29T01:24:00.703Z,99.90
2023-04-29T01:27:26.045Z,99.90
2023-04-29T01:30:50.207Z,99.90
2023-04-29T01:34:14.459Z,99.90
2023-04-29T01:37:41.116Z,99.90
2023-04-29T01:41:10.029Z,99.90
2023-04-29T01:44:32.793Z,99.90
2023-04-29T01:47:54.592Z,99.90
2023-04-29T01:51:16.201Z,99.90
2023-04-29T01:54:38.098Z,99.90
2023-04-29T01:58:01.125Z,99.90
2023-04-29T02:01:22.775Z,99.90
2023-04-29T02:04:44.373Z,99.90
2023-04-29T02:08:06.189Z,99.90
2023-04-29T02:11:27.806Z,99.90
2023-04-29T02:14:53.221Z,99.90
2023-04-29T02:18:14.966Z,99.90
2023-04-29T02:21:36.632Z,99.90
2023-04-29T02:24:58.236Z,99.90
2023-04-29T02:28:19.939Z,99.90
2023-04-29T02:31:42.891Z,99.90
2023-04-29T02:35:05.012Z,99.90
2023-04-29T02:38:26.720Z,99.90
2023-04-29T02:41:48.562Z,99.90
2023-04-29T02:45:10.857Z,99.90
2023-04-29T02:48:33.781Z,99.90
2023-04-29T02:51:55.373Z,99.90
2023-04-29T02:55:17.130Z,99.90
2023-04-29T02:58:38.768Z,99.90
2023-04-29T03:02:00.345Z,99.90
2023-04-29T03:05:23.419Z,99.90
2023-04-29T03:08:44.998Z,99.90
2023-04-29T03:12:06.591Z,99.90
2023-04-29T03:15:28.545Z,99.90
2023-04-29T03:18:50.147Z,99.90
2023-04-29T03:22:13.030Z,99.90
2023-04-29T03:25:34.712Z,99.90
2023-04-29T03:28:56.378Z,99.90
2023-04-29T03:32:17.973Z,99.90
2023-04-29T03:35:39.552Z,99.90
2023-04-29T03:39:02.503Z,99.90
2023-04-29T03:42:24.076Z,99.90
2023-04-29T03:45:45.682Z,99.90
2023-04-29T03:49:07.325Z,99.90
2023-04-29T03:52:28.894Z,99.90
2023-04-29T03:55:51.872Z,99.90
2023-04-29T03:59:13.447Z,99.90
2023-04-29T04:02:35.125Z,99.90
2023-04-29T04:05:56.805Z,99.90
2023-04-29T04:09:18.494Z,99.90
2023-04-29T04:12:43.474Z,99.90
2023-04-29T04:16:06.048Z,99.90
2023-04-29T04:19:27.641Z,99.90
2023-04-29T04:22:49.362Z,99.90
2023-04-29T04:26:10.945Z,99.90
2023-04-29T04:29:33.901Z,99.90
2023-04-29T04:32:55.860Z,99.90
2023-04-29T04:36:18.381Z,99.90
2023-04-29T04:39:40.358Z,99.90
2023-04-29T04:43:02.151Z,99.90
2023-04-29T04:46:25.131Z,99.90
2023-04-29T04:49:46.683Z,99.90
2023-04-29T04:53:08.255Z,99.90
2023-04-29T04:56:29.861Z,99.90
2023-04-29T04:59:51.704Z,99.90
2023-04-29T05:03:14.970Z,99.90
2023-04-29T05:06:36.683Z,99.90
2023-04-29T05:09:58.422Z,99.90
2023-04-29T05:13:19.988Z,99.90
2023-04-29T05:16:41.608Z,99.90
2023-04-29T05:20:05.129Z,99.90
2023-04-29T05:23:26.704Z,99.90
2023-04-29T05:26:48.284Z,99.90
2023-04-29T05:30:19.579Z,99.90
2023-04-29T05:33:41.139Z,99.90
2023-04-29T05:37:04.060Z,99.90
2023-04-29T05:40:25.664Z,99.90
2023-04-29T05:43:47.271Z,99.90
2023-04-29T05:47:08.870Z,99.90
2023-04-29T05:50:30.460Z,99.50
2023-04-29T05:53:53.404Z,96.20
2023-04-29T05:57:14.995Z,98.00
2023-04-29T06:00:36.610Z,99.90
2023-04-29T06:03:58.464Z,99.90
2023-04-29T06:07:20.426Z,99.90
2023-04-29T06:10:43.365Z,99.90
2023-04-29T06:14:04.934Z,99.90
2023-04-29T06:17:26.563Z,99.90
2023-04-29T06:20:48.168Z,99.70
2023-04-29T06:24:09.764Z,97.20
2023-04-29T06:27:32.673Z,96.50
2023-04-29T06:30:54.284Z,99.30
2023-04-29T06:34:15.897Z,98.90
2023-04-29T06:37:38.294Z,99.90
2023-04-29T06:41:00.028Z,96.30
2023-04-29T06:44:22.966Z,96.00
2023-04-29T06:47:44.555Z,97.80
2023-04-29T06:51:06.221Z,99.90
2023-04-29T06:54:27.833Z,99.90
2023-04-29T06:57:49.445Z,99.90
2023-04-29T07:01:12.452Z,99.90
2023-04-29T07:04:34.144Z,99.90
2023-04-29T07:07:55.761Z,99.90
2023-04-29T07:11:17.336Z,99.90
2023-04-29T07:14:38.908Z,99.90
2023-04-29T07:18:03.310Z,99.90
2023-04-29T07:21:25.016Z,99.90
2023-04-29T07:24:46.585Z,99.90
2023-04-29T07:28:08.179Z,99.90
2023-04-29T07:31:29.848Z,99.90
2023-04-29T07:34:53.275Z,99.90
2023-04-29T07:38:15.026Z,94.30
2023-04-29T07:41:36.614Z,91.30
2023-04-29T07:44:58.161Z,87.80
2023-04-29T07:48:19.734Z,84.20
2023-04-29T07:51:42.808Z,83.40
2023-04-29T07:55:04.807Z,79.20
2023-04-29T07:58:27.933Z,74.30
2023-04-29T08:01:49.519Z,76.10
2023-04-29T08:05:11.472Z,77.40
2023-04-29T08:08:34.776Z,80.80
2023-04-29T08:11:56.389Z,84.50
2023-04-29T08:15:18.161Z,85.20
2023-04-29T08:18:39.758Z,90.60
2023-04-29T08:22:01.350Z,91.90
2023-04-29T08:25:24.274Z,94.00
2023-04-29T08:28:45.842Z,93.60
2023-04-29T08:32:07.597Z,94.40
2023-04-29T08:35:29.367Z,95.40
2023-04-29T08:38:50.996Z,95.20
2023-04-29T08:42:14.000Z,95.50
2023-04-29T08:45:35.891Z,96.90
2023-04-29T08:48:57.570Z,95.80
2023-04-29T08:52:19.163Z,95.90
2023-04-29T08:55:41.534Z,96.30
2023-04-29T08:59:04.570Z,95.10
2023-04-29T09:02:26.392Z,94.90
2023-04-29T09:05:49.410Z,94.80
2023-04-29T09:09:11.088Z,95.30
2023-04-29T09:12:32.668Z,93.40
2023-04-29T09:15:55.749Z,94.40
2023-04-29T09:19:32.306Z,93.40
2023-04-29T09:22:54.856Z,92.70
2023-04-29T09:26:18.062Z,91.00
2023-04-29T09:29:45.574Z,92.30
2023-04-29T09:33:09.052Z,92.10
2023-04-29T09:36:41.018Z,93.40
2023-04-29T09:40:02.620Z,92.30
2023-04-29T09:43:24.214Z,93.20
2023-04-29T09:46:54.593Z,93.60
2023-04-29T09:50:17.697Z,94.50
2023-04-29T09:53:39.315Z,95.50
2023-04-29T09:57:02.631Z,95.00
2023-04-29T10:00:31.284Z,95.60
2023-04-29T10:03:54.248Z,94.30
2023-04-29T10:07:17.918Z,90.80
2023-04-29T10:10:39.799Z,89.20
2023-04-29T10:14:06.313Z,86.40
2023-04-29T10:17:37.030Z,87.90
2023-04-29T10:21:00.111Z,91.20
2023-04-29T10:24:27.013Z,90.60
2023-04-29T10:27:49.210Z,91.90
2023-04-29T10:31:11.239Z,92.80
2023-04-29T10:34:34.731Z,93.10
2023-04-29T10:38:01.868Z,92.30
2023-04-29T10:41:26.979Z,93.30
2023-04-29T10:45:07.457Z,93.90
2023-04-29T10:51:52.725Z,95.40
2023-04-29T10:55:18.284Z,94.40
2023-04-29T10:58:46.921Z,96.70
2023-04-29T11:02:10.210Z,95.30
2023-04-29T11:05:33.387Z,93.10
2023-04-29T11:09:01.324Z,93.80
2023-04-29T11:12:24.057Z,93.10
2023-04-29T11:15:47.841Z,93.40
2023-04-29T11:19:12.900Z,94.50
2023-04-29T11:22:35.474Z,94.60
2023-04-29T11:25:57.168Z,94.50
2023-04-29T11:29:19.689Z,94.30
2023-04-29T11:32:43.439Z,94.60
2023-04-29T11:36:05.509Z,95.30
2023-04-29T11:39:27.184Z,93.60
2023-04-29T11:42:49.393Z,94.10
2023-04-29T11:46:12.111Z,93.80
2023-04-29T11:49:35.198Z,95.20
2023-04-29T11:52:57.735Z,95.30
2023-04-29T11:56:21.218Z,93.50
2023-04-29T11:59:42.854Z,94.30
2023-04-29T12:03:07.856Z,93.70
2023-04-29T12:06:32.569Z,92.20
2023-04-29T12:09:54.669Z,93.90
2023-04-29T12:13:16.847Z,92.50
2023-04-29T12:16:38.714Z,91.90
2023-04-29T12:20:00.651Z,92.70
2023-04-29T12:23:24.410Z,92.10
2023-04-29T12:26:46.700Z,92.10
2023-04-29T12:30:08.958Z,92.70
2023-04-29T12:33:30.535Z,92.80
2023-04-29T12:36:54.987Z,93.20
2023-04-29T12:40:18.850Z,93.30
2023-04-29T12:43:41.880Z,94.60
2023-04-29T12:47:07.949Z,93.90
2023-04-29T12:50:33.287Z,94.20
2023-04-29T12:53:54.886Z,94.30
2023-04-29T12:57:17.988Z,93.90
2023-04-29T13:00:39.949Z,93.90
2023-04-29T13:04:01.791Z,94.10
2023-04-29T13:07:23.694Z,94.40
2023-04-29T13:10:45.517Z,94.60
2023-04-29T13:14:08.534Z,94.20
2023-04-29T13:17:30.160Z,94.30
2023-04-29T13:20:53.203Z,95.30
2023-04-29T13:24:15.038Z,95.30
2023-04-29T13:27:36.623Z,94.90
2023-04-29T13:30:59.526Z,94.00
2023-04-29T13:34:21.409Z,94.40
2023-04-29T13:37:43.136Z,94.00
2023-04-29T13:41:07.916Z,94.00
2023-04-29T13:44:42.480Z,94.20
2023-04-29T13:48:38.249Z,94.40
2023-04-29T13:52:42.680Z,93.90
2023-04-29T13:56:34.753Z,93.80
2023-04-29T14:02:46.129Z,93.10
2023-04-29T14:06:09.240Z,94.10
2023-04-29T14:09:30.840Z,94.20
2023-04-29T14:12:52.441Z,93.90
2023-04-29T14:16:14.101Z,94.50
2023-04-29T14:19:35.724Z,94.60
2023-04-29T14:22:58.641Z,93.30
2023-04-29T14:26:27.752Z,94.40
2023-04-29T14:29:50.884Z,93.70
2023-04-29T14:33:12.563Z,94.30
2023-04-29T14:36:34.177Z,94.80
2023-04-29T14:39:57.101Z,94.30
2023-04-29T14:43:19.150Z,94.00
2023-04-29T14:46:40.841Z,95.10
2023-04-29T14:50:02.528Z,94.30
2023-04-29T14:53:24.111Z,95.00
2023-04-29T14:56:47.031Z,94.70
2023-04-29T15:00:09.288Z,95.30
2023-04-29T15:03:30.957Z,95.50
2023-04-29T15:06:52.561Z,95.10
2023-04-29T15:10:14.174Z,96.10
2023-04-29T15:13:38.644Z,96.00
2023-04-29T15:17:00.269Z,95.70
2023-04-29T15:20:21.916Z,96.00
2023-04-29T15:23:43.475Z,96.20
2023-04-29T15:27:05.136Z,96.10
2023-04-29T15:30:29.356Z,96.20
2023-04-29T15:33:53.197Z,96.50
2023-04-29T15:37:14.782Z,96.90
2023-04-29T15:40:36.388Z,96.80
2023-04-29T15:43:57.989Z,97.10
2023-04-29T15:47:21.027Z,97.10
2023-04-29T15:50:42.658Z,97.10
2023-04-29T15:54:04.297Z,96.30
2023-04-29T15:57:25.960Z,96.00
2023-04-29T16:00:47.685Z,96.50
2023-04-29T16:04:10.729Z,96.40
2023-04-29T16:07:33.715Z,96.70
2023-04-29T16:10:57.326Z,97.20
2023-04-29T16:14:20.138Z,96.80
2023-04-29T16:17:42.198Z,97.80
2023-04-29T16:21:05.261Z,96.90
2023-04-29T16:24:31.193Z,97.20
2023-04-29T16:27:52.847Z,97.60
2023-04-29T16:31:14.601Z,96.90
2023-04-29T16:34:36.192Z,97.20
2023-04-29T16:37:59.288Z,97.40
2023-04-29T16:41:20.988Z,97.90
2023-04-29T16:44:42.593Z,98.00
2023-04-29T16:48:04.471Z,98.20
2023-04-29T16:51:26.301Z,98.20
2023-04-29T16:54:49.239Z,98.40
2023-04-29T16:58:10.794Z,99.20
2023-04-29T17:01:32.433Z,99.20
2023-04-29T17:04:54.104Z,99.00
2023-04-29T17:08:15.745Z,99.00
2023-04-29T17:11:44.097Z,99.50
2023-04-29T17:15:07.592Z,99.30
2023-04-29T17:18:29.687Z,99.90
2023-04-29T17:21:51.547Z,99.90
2023-04-29T17:25:14.948Z,99.70
2023-04-29T17:28:37.929Z,99.90
2023-04-29T17:31:59.611Z,99.90
2023-04-29T17:35:21.254Z,99.90
2023-04-29T17:38:44.700Z,99.90
2023-04-29T17:42:06.259Z,99.90
2023-04-29T17:48:51.205Z,99.70
2023-04-29T17:52:13.005Z,99.90
2023-04-29T17:55:37.628Z,99.90
2023-04-29T17:58:59.229Z,99.90
2023-04-29T18:02:20.827Z,99.90
2023-04-29T18:05:43.817Z,99.90
2023-04-29T18:09:05.634Z,99.90
2023-04-29T18:12:27.340Z,99.90
2023-04-29T18:15:49.843Z,99.90
2023-04-29T18:19:14.118Z,99.90
2023-04-29T18:22:37.039Z,99.90
2023-04-29T18:25:58.981Z,99.90
2023-04-29T18:29:23.263Z,99.90
2023-04-29T18:32:46.931Z,99.90
2023-04-29T18:36:13.575Z,99.90
2023-04-29T18:39:42.056Z,99.90
2023-04-29T18:43:05.158Z,99.90
2023-04-29T18:46:29.226Z,99.90
2023-04-29T18:49:52.685Z,99.90
2023-04-29T18:53:20.122Z,99.90
2023-04-29T18:56:47.698Z,99.90
2023-04-29T19:00:11.688Z,99.90
2023-04-29T19:03:36.053Z,99.90
2023-04-29T19:06:58.747Z,99.90
2023-04-29T19:10:22.096Z,99.90
2023-04-29T19:13:46.348Z,99.90
2023-04-29T19:17:12.410Z,99.90
2023-04-29T19:20:36.095Z,99.90
2023-04-29T19:24:00.289Z,99.90
2023-04-29T19:27:25.398Z,99.90
2023-04-29T19:30:50.002Z,99.90
2023-04-29T19:34:12.054Z,99.90
2023-04-29T19:37:38.212Z,99.90
2023-04-29T19:41:02.702Z,99.90
2023-04-29T19:44:26.435Z,99.90
2023-04-29T19:47:52.171Z,99.90
2023-04-29T19:51:17.530Z,99.90
2023-04-29T19:54:39.662Z,99.90
2023-04-29T19:58:01.231Z,99.90
2023-04-29T20:01:23.104Z,99.90
2023-04-29T20:04:46.101Z,99.90
2023-04-29T20:08:07.933Z,99.90
2023-04-29T20:11:29.560Z,99.90
2023-04-29T20:14:51.121Z,99.90
2023-04-29T20:18:12.703Z,99.90
2023-04-29T20:21:35.636Z,99.90
2023-04-29T20:24:57.315Z,99.90
2023-04-29T20:28:18.925Z,99.90
2023-04-29T20:31:40.532Z,99.90
2023-04-29T20:35:02.198Z,99.90
2023-04-29T20:38:25.199Z,99.90
2023-04-29T20:41:46.766Z,99.90
2023-04-29T20:45:08.954Z,99.90
2023-04-29T20:48:30.591Z,99.90
2023-04-29T20:51:52.168Z,99.90
2023-04-29T20:55:15.087Z,99.90
2023-04-29T20:58:36.728Z,99.90
2023-04-29T21:01:58.307Z,99.90
2023-04-29T21:05:19.876Z,99.90
2023-04-29T21:08:42.083Z,99.90
2023-04-29T21:12:05.223Z,99.90
2023-04-29T21:15:26.938Z,99.90
2023-04-29T21:18:48.617Z,99.90
2023-04-29T21:22:10.173Z,99.90
2023-04-29T21:25:31.754Z,99.90
2023-04-29T21:28:54.697Z,99.90
2023-04-29T21:32:16.279Z,99.90
2023-04-29T21:35:40.169Z,99.90
2023-04-29T21:39:01.794Z,99.90
2023-04-29T21:42:23.817Z,99.90
2023-04-29T21:45:46.802Z,99.90
2023-04-29T21:49:08.741Z,99.90
2023-04-29T21:52:30.332Z,99.90
2023-04-29T21:55:52.027Z,99.90
2023-04-29T21:59:13.606Z,99.90
2023-04-29T22:02:36.749Z,99.90
2023-04-29T22:05:58.388Z,99.90
2023-04-29T22:09:20.121Z,99.90
2023-04-29T22:12:41.729Z,99.90
2023-04-29T22:16:03.564Z,99.90
2023-04-29T22:19:26.525Z,99.90
2023-04-29T22:22:48.237Z,99.90
2023-04-29T22:26:09.826Z,99.90
2023-04-29T22:29:31.402Z,99.90
2023-04-29T22:32:53.713Z,99.90
2023-04-29T22:36:16.764Z,99.90
2023-04-29T22:39:38.446Z,99.90
2023-04-29T22:43:00.022Z,99.90
2023-04-29T22:46:21.609Z,99.90
2023-04-29T22:49:43.258Z,99.90
2023-04-29T22:53:06.190Z,99.90
2023-04-29T22:56:27.777Z,99.90
2023-04-29T22:59:53.119Z,99.90
2023-04-29T23:03:14.881Z,99.90
2023-04-29T23:06:36.486Z,99.90
2023-04-29T23:10:00.076Z,99.90
2023-04-29T23:13:21.964Z,99.90
2023-04-29T23:16:43.528Z,99.90
2023-04-29T23:20:05.821Z,99.90
2023-04-29T23:23:27.650Z,99.90
2023-04-29T23:26:50.733Z,99.90
2023-04-29T23:30:12.400Z,99.90
2023-04-29T23:33:33.975Z,99.90
2023-04-29T23:36:55.599Z,99.90
2023-04-29T23:40:17.302Z,99.90
2023-04-29T23:43:40.183Z,99.90
2023-04-29T23:47:01.728Z,99.90
2023-04-29T23:50:23.311Z,99.90
2023-04-29T23:53:44.896Z,99.90
2023-04-29T23:57:06.455Z,99.90
